sensor_id;sensor_type;location;lat;lon;timestamp;temperature;humidity
19906;DHT22;10115;50.906;4.438;2023-01-19T00:01:31;1.50;99.90
19906;DHT22;10115;50.906;4.438;2023-01-19T00:03:57;1.50;99.90
19906;DHT22;10115;50.906;4.438;2023-01-19T00:06:23;1.50;99.90
19906;DHT22;10115;50.906;4.438;2023-01-19T00:08:49;1.50;99.90
19906;DHT22;10115;50.906;4.438;2023-01-19T00:11:15;1.50;99.90
19906;DHT22;10115;50.906;4.438;2023-01-19T00:13:44;1.50;99.90
19906;DHT22;10115;50.906;4.438;2023-01-19T00:16:17;1.50;99.90
19906;DHT22;10115;50.906;4.438;2023-01-19T00:18:44;1.50;99.90
19906;DHT22;10115;50.906;4.438;2023-01-19T00:21:11;1.50;99.90
19906;DHT22;10115;50.906;4.438;2023-01-19T00:23:39;1.50;99.90
19906;DHT22;10115;50.906;4.438;2023-01-19T00:26:05;1.40;99.90
19906;DHT22;10115;50.906;4.438;2023-01-19T00:28:30;1.40;99.90
19906;DHT22;10115;50.906;4.438;2023-01-19T00:30:56;1.40;99.90
19906;DHT22;10115;50.906;4.438;2023-01-19T00:33:22;1.50;99.90
19906;DHT22;10115;50.906;4.438;2023-01-19T00:35:51;1.50;99.90
19906;DHT22;10115;50.906;4.438;2023-01-19T00:38:17;1.50;99.90
19906;DHT22;10115;50.906;4.438;2023-01-19T00:40:43;1.50;99.90
19906;DHT22;10115;50.906;4.438;2023-01-19T00:43:09;1.50;99.90
19906;DHT22;10115;50.906;4.438;2023-01-19T00:45:34;1.60;99.90
19906;DHT22;10115;50.906;4.438;2023-01-19T00:48:00;1.50;99.90
19906;DHT22;10115;50.906;4.438;2023-01-19T00:50:28;1.50;99.90
19906;DHT22;10115;50.906;4.438;2023-01-19T00:52:54;1.50;99.90
19906;DHT22;10115;50.906;4.438;2023-01-19T00:55:21;1.50;99.90
19906;DHT22;10115;50.906;4.438;2023-01-19T00:57:47;1.40;99.90
19906;DHT22;10115;50.906;4.438;2023-01-19T01:00:17;1.40;99.90
19906;DHT22;10115;50.906;4.438;2023-01-19T01:02:47;1.40;99.90
19906;DHT22;10115;50.906;4.438;2023-01-19T01:05:13;1.40;99.90
19906;DHT22;10115;50.906;4.438;2023-01-19T01:07:40;1.40;99.90
19906;DHT22;10115;50.906;4.438;2023-01-19T01:10:07;1.40;99.90
19906;DHT22;10115;50.906;4.438;2023-01-19T01:12:34;1.40;99.90
19906;DHT22;10115;50.906;4.438;2023-01-19T01:14:59;1.40;99.90
19906;DHT22;10115;50.906;4.438;2023-01-19T01:17:25;1.40;99.90
19906;DHT22;10115;50.906;4.438;2023-01-19T01:19:51;1.40;99.90
19906;DHT22;10115;50.906;4.438;2023-01-19T01:22:17;1.40;99.90
19906;DHT22;10115;50.906;4.438;2023-01-19T01:24:43;1.40;99.90
19906;DHT22;10115;50.906;4.438;2023-01-19T01:27:10;1.40;99.90
19906;DHT22;10115;50.906;4.438;2023-01-19T01:29:36;1.40;99.90
19906;DHT22;10115;50.906;4.438;2023-01-19T01:32:01;1.40;99.90
19906;DHT22;10115;50.906;4.438;2023-01-19T01:34:28;1.30;99.90
19906;DHT22;10115;50.906;4.438;2023-01-19T01:36:54;1.30;99.90
19906;DHT22;10115;50.906;4.438;2023-01-19T01:39:20;1.30;99.90
19906;DHT22;10115;50.906;4.438;2023-01-19T01:41:46;1.30;99.90
19906;DHT22;10115;50.906;4.438;2023-01-19T01:47:35;1.30;99.90
19906;DHT22;10115;50.906;4.438;2023-01-19T01:50:17;1.20;99.90
19906;DHT22;10115;50.906;4.438;2023-01-19T01:53:03;1.20;99.90
19906;DHT22;10115;50.906;4.438;2023-01-19T01:55:31;1.20;99.90
19906;DHT22;10115;50.906;4.438;2023-01-19T01:58:00;1.20;99.90
19906;DHT22;10115;50.906;4.438;2023-01-19T02:00:28;1.20;99.90
19906;DHT22;10115;50.906;4.438;2023-01-19T02:03:14;1.20;99.90
19906;DHT22;10115;50.906;4.438;2023-01-19T02:05:40;1.20;99.90
19906;DHT22;10115;50.906;4.438;2023-01-19T02:08:07;1.20;99.90
19906;DHT22;10115;50.906;4.438;2023-01-19T02:10:53;1.20;99.90
19906;DHT22;10115;50.906;4.438;2023-01-19T02:13:40;1.20;99.90
19906;DHT22;10115;50.906;4.438;2023-01-19T02:16:09;1.20;99.90
19906;DHT22;10115;50.906;4.438;2023-01-19T02:18:35;1.10;99.90
19906;DHT22;10115;50.906;4.438;2023-01-19T02:21:16;1.10;99.90
19906;DHT22;10115;50.906;4.438;2023-01-19T02:23:49;1.10;99.90
19906;DHT22;10115;50.906;4.438;2023-01-19T02:27:00;1.20;99.90
19906;DHT22;10115;50.906;4.438;2023-01-19T02:29:11;1.20;99.90
19906;DHT22;10115;50.906;4.438;2023-01-19T02:31:39;1.20;99.90
19906;DHT22;10115;50.906;4.438;2023-01-19T02:34:08;1.10;99.90
19906;DHT22;10115;50.906;4.438;2023-01-19T02:36:41;1.10;99.90
19906;DHT22;10115;50.906;4.438;2023-01-19T02:39:10;1.20;99.90
19906;DHT22;10115;50.906;4.438;2023-01-19T02:41:46;1.20;99.90
19906;DHT22;10115;50.906;4.438;2023-01-19T02:44:14;1.20;99.90
19906;DHT22;10115;50.906;4.438;2023-01-19T02:46:41;1.20;99.90
19906;DHT22;10115;50.906;4.438;2023-01-19T02:49:06;1.20;99.90
19906;DHT22;10115;50.906;4.438;2023-01-19T02:51:33;1.20;99.90
19906;DHT22;10115;50.906;4.438;2023-01-19T03:02:13;1.20;99.90
19906;DHT22;10115;50.906;4.438;2023-01-19T03:10:49;1.30;99.90
19906;DHT22;10115;50.906;4.438;2023-01-19T03:13:48;1.30;99.90
19906;DHT22;10115;50.906;4.438;2023-01-19T03:16:29;1.20;99.90
19906;DHT22;10115;50.906;4.438;2023-01-19T03:19:26;1.20;99.90
19906;DHT22;10115;50.906;4.438;2023-01-19T03:22:06;1.30;99.90
19906;DHT22;10115;50.906;4.438;2023-01-19T03:24:36;1.20;99.90
19906;DHT22;10115;50.906;4.438;2023-01-19T03:27:46;1.30;99.90
19906;DHT22;10115;50.906;4.438;2023-01-19T03:30:16;1.30;99.90
19906;DHT22;10115;50.906;4.438;2023-01-19T03:32:51;1.30;99.90
19906;DHT22;10115;50.906;4.438;2023-01-19T03:35:21;1.30;99.90
19906;DHT22;10115;50.906;4.438;2023-01-19T03:37:47;1.30;99.90
19906;DHT22;10115;50.906;4.438;2023-01-19T03:40:15;1.30;99.90
19906;DHT22;10115;50.906;4.438;2023-01-19T03:42:41;1.30;99.90
19906;DHT22;10115;50.906;4.438;2023-01-19T03:45:09;1.30;99.90
19906;DHT22;10115;50.906;4.438;2023-01-19T03:47:37;1.30;99.90
19906;DHT22;10115;50.906;4.438;2023-01-19T03:50:06;1.20;99.90
19906;DHT22;10115;50.906;4.438;2023-01-19T03:52:33;1.10;99.90
19906;DHT22;10115;50.906;4.438;2023-01-19T03:55:00;1.00;99.90
19906;DHT22;10115;50.906;4.438;2023-01-19T03:57:26;1.00;99.90
19906;DHT22;10115;50.906;4.438;2023-01-19T03:59:52;1.00;99.90
19906;DHT22;10115;50.906;4.438;2023-01-19T04:02:18;1.00;99.90
19906;DHT22;10115;50.906;4.438;2023-01-19T04:04:43;1.00;99.90
19906;DHT22;10115;50.906;4.438;2023-01-19T04:07:09;0.90;99.90
19906;DHT22;10115;50.906;4.438;2023-01-19T04:09:36;1.00;99.90
19906;DHT22;10115;50.906;4.438;2023-01-19T04:12:02;1.00;99.90
19906;DHT22;10115;50.906;4.438;2023-01-19T04:14:29;0.90;99.90
19906;DHT22;10115;50.906;4.438;2023-01-19T04:16:54;0.90;99.90
19906;DHT22;10115;50.906;4.438;2023-01-19T04:19:20;1.00;99.90
19906;DHT22;10115;50.906;4.438;2023-01-19T04:21:49;1.00;99.90
19906;DHT22;10115;50.906;4.438;2023-01-19T04:24:15;1.00;99.90
19906;DHT22;10115;50.906;4.438;2023-01-19T04:26:41;1.00;99.90
19906;DHT22;10115;50.906;4.438;2023-01-19T04:29:06;1.00;99.90
19906;DHT22;10115;50.906;4.438;2023-01-19T04:31:33;1.00;99.90
19906;DHT22;10115;50.906;4.438;2023-01-19T04:34:00;1.00;99.90
19906;DHT22;10115;50.906;4.438;2023-01-19T04:36:26;1.00;99.90
19906;DHT22;10115;50.906;4.438;2023-01-19T04:38:53;1.00;99.90
19906;DHT22;10115;50.906;4.438;2023-01-19T04:41:19;1.00;99.90
19906;DHT22;10115;50.906;4.438;2023-01-19T04:43:44;1.00;99.90
19906;DHT22;10115;50.906;4.438;2023-01-19T04:46:15;0.90;99.90
19906;DHT22;10115;50.906;4.438;2023-01-19T04:48:40;0.90;99.90
19906;DHT22;10115;50.906;4.438;2023-01-19T04:51:06;0.90;99.90
19906;DHT22;10115;50.906;4.438;2023-01-19T04:53:33;1.00;99.90
19906;DHT22;10115;50.906;4.438;2023-01-19T04:55:59;0.90;99.90
19906;DHT22;10115;50.906;4.438;2023-01-19T04:58:25;0.90;99.90
19906;DHT22;10115;50.906;4.438;2023-01-19T05:00:51;0.90;99.90
19906;DHT22;10115;50.906;4.438;2023-01-19T05:03:18;0.90;99.90
19906;DHT22;10115;50.906;4.438;2023-01-19T05:05:44;0.80;99.90
19906;DHT22;10115;50.906;4.438;2023-01-19T05:08:10;0.90;99.90
19906;DHT22;10115;50.906;4.438;2023-01-19T05:10:36;0.80;99.90
19906;DHT22;10115;50.906;4.438;2023-01-19T05:13:01;0.80;99.90
19906;DHT22;10115;50.906;4.438;2023-01-19T05:15:27;0.80;99.90
19906;DHT22;10115;50.906;4.438;2023-01-19T05:17:54;0.80;99.90
19906;DHT22;10115;50.906;4.438;2023-01-19T05:20:22;0.80;99.90
19906;DHT22;10115;50.906;4.438;2023-01-19T05:22:49;0.80;99.90
19906;DHT22;10115;50.906;4.438;2023-01-19T05:25:15;0.70;99.90
19906;DHT22;10115;50.906;4.438;2023-01-19T05:27:41;0.80;99.90
19906;DHT22;10115;50.906;4.438;2023-01-19T05:30:08;0.80;99.90
19906;DHT22;10115;50.906;4.438;2023-01-19T05:32:33;0.80;99.90
19906;DHT22;10115;50.906;4.438;2023-01-19T05:34:59;0.80;99.90
19906;DHT22;10115;50.906;4.438;2023-01-19T05:37:25;0.80;99.90
19906;DHT22;10115;50.906;4.438;2023-01-19T05:39:51;0.80;99.90
19906;DHT22;10115;50.906;4.438;2023-01-19T05:42:17;0.80;99.90
19906;DHT22;10115;50.906;4.438;2023-01-19T05:44:42;0.80;99.90
19906;DHT22;10115;50.906;4.438;2023-01-19T05:47:08;0.80;99.90
19906;DHT22;10115;50.906;4.438;2023-01-19T05:49:34;0.80;99.90
19906;DHT22;10115;50.906;4.438;2023-01-19T05:52:00;0.80;99.90
19906;DHT22;10115;50.906;4.438;2023-01-19T05:54:26;0.80;99.90
19906;DHT22;10115;50.906;4.438;2023-01-19T05:56:52;0.80;99.90
19906;DHT22;10115;50.906;4.438;2023-01-19T05:59:19;0.80;99.90
19906;DHT22;10115;50.906;4.438;2023-01-19T06:01:52;0.80;99.90
19906;DHT22;10115;50.906;4.438;2023-01-19T06:04:18;0.80;99.90
19906;DHT22;10115;50.906;4.438;2023-01-19T06:06:49;0.80;99.90
19906;DHT22;10115;50.906;4.438;2023-01-19T06:09:15;0.80;99.90
19906;DHT22;10115;50.906;4.438;2023-01-19T06:11:42;0.80;99.90
19906;DHT22;10115;50.906;4.438;2023-01-19T06:14:09;0.80;99.90
19906;DHT22;10115;50.906;4.438;2023-01-19T06:16:35;0.80;99.90
19906;DHT22;10115;50.906;4.438;2023-01-19T06:19:00;0.80;99.90
19906;DHT22;10115;50.906;4.438;2023-01-19T06:21:26;0.80;99.90
19906;DHT22;10115;50.906;4.438;2023-01-19T06:23:52;0.80;99.90
19906;DHT22;10115;50.906;4.438;2023-01-19T06:26:17;0.80;99.90
19906;DHT22;10115;50.906;4.438;2023-01-19T06:28:43;0.80;99.90
19906;DHT22;10115;50.906;4.438;2023-01-19T06:31:09;0.80;99.90
19906;DHT22;10115;50.906;4.438;2023-01-19T06:33:34;0.80;99.90
19906;DHT22;10115;50.906;4.438;2023-01-19T06:36:00;0.70;99.90
19906;DHT22;10115;50.906;4.438;2023-01-19T06:38:27;0.80;99.90
19906;DHT22;10115;50.906;4.438;2023-01-19T06:40:56;0.80;99.90
19906;DHT22;10115;50.906;4.438;2023-01-19T06:43:30;0.80;99.90
19906;DHT22;10115;50.906;4.438;2023-01-19T06:45:56;0.80;99.90
19906;DHT22;10115;50.906;4.438;2023-01-19T06:48:22;0.90;99.90
19906;DHT22;10115;50.906;4.438;2023-01-19T06:50:48;0.90;99.90
19906;DHT22;10115;50.906;4.438;2023-01-19T06:53:15;1.00;99.90
19906;DHT22;10115;50.906;4.438;2023-01-19T06:55:42;1.00;99.90
19906;DHT22;10115;50.906;4.438;2023-01-19T06:58:09;1.00;99.90
19906;DHT22;10115;50.906;4.438;2023-01-19T07:00:34;1.00;99.90
19906;DHT22;10115;50.906;4.438;2023-01-19T07:03:00;1.00;99.90
19906;DHT22;10115;50.906;4.438;2023-01-19T07:05:26;1.00;99.90
19906;DHT22;10115;50.906;4.438;2023-01-19T07:07:55;1.00;99.90
19906;DHT22;10115;50.906;4.438;2023-01-19T07:10:21;1.00;99.90
19906;DHT22;10115;50.906;4.438;2023-01-19T07:12:47;1.00;99.90
19906;DHT22;10115;50.906;4.438;2023-01-19T07:15:14;1.00;99.90
19906;DHT22;10115;50.906;4.438;2023-01-19T07:17:40;1.00;99.90
19906;DHT22;10115;50.906;4.438;2023-01-19T07:20:08;1.00;99.90
19906;DHT22;10115;50.906;4.438;2023-01-19T07:22:35;1.00;99.90
19906;DHT22;10115;50.906;4.438;2023-01-19T07:25:01;1.00;99.90
19906;DHT22;10115;50.906;4.438;2023-01-19T07:27:27;1.10;99.90
19906;DHT22;10115;50.906;4.438;2023-01-19T07:29:53;1.00;99.90
19906;DHT22;10115;50.906;4.438;2023-01-19T07:32:18;1.00;99.90
19906;DHT22;10115;50.906;4.438;2023-01-19T07:34:44;1.00;99.90
19906;DHT22;10115;50.906;4.438;2023-01-19T07:37:10;1.00;99.90
19906;DHT22;10115;50.906;4.438;2023-01-19T07:39:35;1.10;99.90
19906;DHT22;10115;50.906;4.438;2023-01-19T07:42:01;1.00;99.90
19906;DHT22;10115;50.906;4.438;2023-01-19T07:44:27;1.00;99.90
19906;DHT22;10115;50.906;4.438;2023-01-19T07:46:53;1.00;99.90
19906;DHT22;10115;50.906;4.438;2023-01-19T07:49:18;1.00;99.90
19906;DHT22;10115;50.906;4.438;2023-01-19T07:51:45;1.00;99.90
19906;DHT22;10115;50.906;4.438;2023-01-19T07:54:10;1.00;99.90
19906;DHT22;10115;50.906;4.438;2023-01-19T07:56:36;1.00;99.90
19906;DHT22;10115;50.906;4.438;2023-01-19T07:59:02;1.10;99.90
19906;DHT22;10115;50.906;4.438;2023-01-19T08:01:28;1.00;99.90
19906;DHT22;10115;50.906;4.438;2023-01-19T08:03:54;1.10;99.90
19906;DHT22;10115;50.906;4.438;2023-01-19T08:06:20;1.00;99.90
19906;DHT22;10115;50.906;4.438;2023-01-19T08:08:46;1.10;99.90
19906;DHT22;10115;50.906;4.438;2023-01-19T08:11:12;1.10;99.90
19906;DHT22;10115;50.906;4.438;2023-01-19T08:13:38;1.20;99.90
19906;DHT22;10115;50.906;4.438;2023-01-19T08:16:04;1.20;99.90
19906;DHT22;10115;50.906;4.438;2023-01-19T08:18:29;1.20;99.90
19906;DHT22;10115;50.906;4.438;2023-01-19T08:20:57;1.60;99.90
19906;DHT22;10115;50.906;4.438;2023-01-19T08:23:24;1.40;99.90
19906;DHT22;10115;50.906;4.438;2023-01-19T08:25:49;1.30;99.90
19906;DHT22;10115;50.906;4.438;2023-01-19T08:28:16;1.30;99.90
19906;DHT22;10115;50.906;4.438;2023-01-19T08:30:42;1.30;99.90
19906;DHT22;10115;50.906;4.438;2023-01-19T08:33:12;1.30;99.90
19906;DHT22;10115;50.906;4.438;2023-01-19T08:35:39;1.30;99.90
19906;DHT22;10115;50.906;4.438;2023-01-19T08:38:06;1.30;99.90
19906;DHT22;10115;50.906;4.438;2023-01-19T08:40:37;1.20;99.90
19906;DHT22;10115;50.906;4.438;2023-01-19T08:43:09;1.20;99.90
19906;DHT22;10115;50.906;4.438;2023-01-19T08:45:36;1.30;99.90
19906;DHT22;10115;50.906;4.438;2023-01-19T08:48:03;1.30;99.90
19906;DHT22;10115;50.906;4.438;2023-01-19T08:50:31;1.30;99.90
19906;DHT22;10115;50.906;4.438;2023-01-19T08:52:58;1.30;99.90
19906;DHT22;10115;50.906;4.438;2023-01-19T08:55:25;1.30;99.90
19906;DHT22;10115;50.906;4.438;2023-01-19T08:57:51;1.20;99.90
19906;DHT22;10115;50.906;4.438;2023-01-19T09:00:18;1.30;99.90
19906;DHT22;10115;50.906;4.438;2023-01-19T09:02:44;1.30;99.90
19906;DHT22;10115;50.906;4.438;2023-01-19T09:05:10;1.30;99.90
19906;DHT22;10115;50.906;4.438;2023-01-19T09:07:35;1.40;99.90
19906;DHT22;10115;50.906;4.438;2023-01-19T09:10:03;1.40;99.90
19906;DHT22;10115;50.906;4.438;2023-01-19T09:12:29;1.40;99.90
19906;DHT22;10115;50.906;4.438;2023-01-19T09:14:54;1.40;99.90
19906;DHT22;10115;50.906;4.438;2023-01-19T09:17:20;1.40;99.90
19906;DHT22;10115;50.906;4.438;2023-01-19T09:19:46;1.40;99.90
19906;DHT22;10115;50.906;4.438;2023-01-19T09:22:11;1.50;99.90
19906;DHT22;10115;50.906;4.438;2023-01-19T09:24:37;1.50;99.90
19906;DHT22;10115;50.906;4.438;2023-01-19T09:27:03;1.60;99.90
19906;DHT22;10115;50.906;4.438;2023-01-19T09:29:28;1.60;99.90
19906;DHT22;10115;50.906;4.438;2023-01-19T09:31:54;1.60;99.90
19906;DHT22;10115;50.906;4.438;2023-01-19T09:34:20;1.60;99.90
19906;DHT22;10115;50.906;4.438;2023-01-19T09:36:47;1.60;99.90
19906;DHT22;10115;50.906;4.438;2023-01-19T09:39:13;1.80;99.90
19906;DHT22;10115;50.906;4.438;2023-01-19T09:41:41;1.70;99.90
19906;DHT22;10115;50.906;4.438;2023-01-19T09:44:16;1.70;99.90
19906;DHT22;10115;50.906;4.438;2023-01-19T09:46:43;1.60;99.90
19906;DHT22;10115;50.906;4.438;2023-01-19T09:49:14;2.30;99.90
19906;DHT22;10115;50.906;4.438;2023-01-19T09:51:44;2.20;99.90
19906;DHT22;10115;50.906;4.438;2023-01-19T09:54:12;2.10;99.90
19906;DHT22;10115;50.906;4.438;2023-01-19T09:56:39;2.00;99.90
19906;DHT22;10115;50.906;4.438;2023-01-19T09:59:29;2.00;99.90
19906;DHT22;10115;50.906;4.438;2023-01-19T10:04:28;2.00;99.90
19906;DHT22;10115;50.906;4.438;2023-01-19T10:10:03;2.00;99.90
19906;DHT22;10115;50.906;4.438;2023-01-19T10:17:50;2.10;99.90
19906;DHT22;10115;50.906;4.438;2023-01-19T10:20:31;2.10;99.90
19906;DHT22;10115;50.906;4.438;2023-01-19T10:23:00;2.20;99.90
19906;DHT22;10115;50.906;4.438;2023-01-19T10:25:29;2.40;99.90
19906;DHT22;10115;50.906;4.438;2023-01-19T10:27:57;2.30;99.90
19906;DHT22;10115;50.906;4.438;2023-01-19T10:30:27;2.20;99.90
19906;DHT22;10115;50.906;4.438;2023-01-19T10:32:53;2.10;99.90
19906;DHT22;10115;50.906;4.438;2023-01-19T10:35:22;2.00;99.90
19906;DHT22;10115;50.906;4.438;2023-01-19T10:37:55;2.10;99.90
19906;DHT22;10115;50.906;4.438;2023-01-19T10:41:13;2.10;99.90
19906;DHT22;10115;50.906;4.438;2023-01-19T10:43:41;2.10;99.90
19906;DHT22;10115;50.906;4.438;2023-01-19T10:46:16;1.90;99.90
19906;DHT22;10115;50.906;4.438;2023-01-19T10:48:50;2.00;99.90
19906;DHT22;10115;50.906;4.438;2023-01-19T10:51:16;2.00;99.90
19906;DHT22;10115;50.906;4.438;2023-01-19T10:53:53;2.00;99.90
19906;DHT22;10115;50.906;4.438;2023-01-19T10:56:23;1.90;99.90
19906;DHT22;10115;50.906;4.438;2023-01-19T10:58:50;2.00;99.90
19906;DHT22;10115;50.906;4.438;2023-01-19T11:01:23;2.00;99.90
19906;DHT22;10115;50.906;4.438;2023-01-19T11:03:49;2.00;99.90
19906;DHT22;10115;50.906;4.438;2023-01-19T11:08:45;2.10;99.90
19906;DHT22;10115;50.906;4.438;2023-01-19T11:11:11;2.10;99.90
19906;DHT22;10115;50.906;4.438;2023-01-19T11:13:38;2.10;99.90
19906;DHT22;10115;50.906;4.438;2023-01-19T11:16:05;2.00;99.90
19906;DHT22;10115;50.906;4.438;2023-01-19T11:18:37;2.10;99.90
19906;DHT22;10115;50.906;4.438;2023-01-19T11:21:14;2.20;99.90
19906;DHT22;10115;50.906;4.438;2023-01-19T11:23:48;2.30;99.90
19906;DHT22;10115;50.906;4.438;2023-01-19T11:26:39;2.40;99.90
19906;DHT22;10115;50.906;4.438;2023-01-19T11:29:10;2.50;99.90
19906;DHT22;10115;50.906;4.438;2023-01-19T11:31:39;2.60;99.90
19906;DHT22;10115;50.906;4.438;2023-01-19T11:36:59;2.50;99.90
19906;DHT22;10115;50.906;4.438;2023-01-19T11:39:28;2.40;99.90
19906;DHT22;10115;50.906;4.438;2023-01-19T11:41:56;2.50;99.90
19906;DHT22;10115;50.906;4.438;2023-01-19T11:46:55;2.70;99.90
19906;DHT22;10115;50.906;4.438;2023-01-19T11:49:45;2.70;99.90
19906;DHT22;10115;50.906;4.438;2023-01-19T11:52:20;3.00;99.90
19906;DHT22;10115;50.906;4.438;2023-01-19T11:54:53;3.00;99.90
19906;DHT22;10115;50.906;4.438;2023-01-19T11:57:20;3.10;99.90
19906;DHT22;10115;50.906;4.438;2023-01-19T11:59:46;3.10;99.90
19906;DHT22;10115;50.906;4.438;2023-01-19T12:02:42;2.90;99.90
19906;DHT22;10115;50.906;4.438;2023-01-19T12:05:14;2.80;99.90
19906;DHT22;10115;50.906;4.438;2023-01-19T12:07:43;2.80;99.90
19906;DHT22;10115;50.906;4.438;2023-01-19T12:10:19;2.80;99.90
19906;DHT22;10115;50.906;4.438;2023-01-19T12:12:48;3.00;99.90
19906;DHT22;10115;50.906;4.438;2023-01-19T12:17:47;2.70;99.90
19906;DHT22;10115;50.906;4.438;2023-01-19T12:20:42;2.90;99.90
19906;DHT22;10115;50.906;4.438;2023-01-19T12:23:28;2.90;99.90
19906;DHT22;10115;50.906;4.438;2023-01-19T12:28:46;2.80;99.90
19906;DHT22;10115;50.906;4.438;2023-01-19T12:31:16;2.80;99.90
19906;DHT22;10115;50.906;4.438;2023-01-19T12:33:43;2.80;99.90
19906;DHT22;10115;50.906;4.438;2023-01-19T12:36:12;2.80;99.90
19906;DHT22;10115;50.906;4.438;2023-01-19T12:39:21;2.80;99.90
19906;DHT22;10115;50.906;4.438;2023-01-19T12:41:48;2.80;99.90
19906;DHT22;10115;50.906;4.438;2023-01-19T12:44:29;2.80;99.90
19906;DHT22;10115;50.906;4.438;2023-01-19T12:49:57;3.00;99.90
19906;DHT22;10115;50.906;4.438;2023-01-19T12:52:46;3.00;99.90
19906;DHT22;10115;50.906;4.438;2023-01-19T13:13:34;2.90;99.90
19906;DHT22;10115;50.906;4.438;2023-01-19T13:21:29;3.10;99.90
19906;DHT22;10115;50.906;4.438;2023-01-19T13:24:04;3.10;99.90
19906;DHT22;10115;50.906;4.438;2023-01-19T13:26:39;3.00;99.90
19906;DHT22;10115;50.906;4.438;2023-01-19T13:31:55;3.00;99.90
19906;DHT22;10115;50.906;4.438;2023-01-19T13:34:30;3.00;99.90
19906;DHT22;10115;50.906;4.438;2023-01-19T13:36:58;3.00;99.90
19906;DHT22;10115;50.906;4.438;2023-01-19T13:39:42;3.00;99.90
19906;DHT22;10115;50.906;4.438;2023-01-19T13:42:39;3.10;99.90
19906;DHT22;10115;50.906;4.438;2023-01-19T13:45:26;3.30;99.90
19906;DHT22;10115;50.906;4.438;2023-01-19T13:47:55;3.30;99.90
19906;DHT22;10115;50.906;4.438;2023-01-19T13:50:24;3.50;99.90
19906;DHT22;10115;50.906;4.438;2023-01-19T13:52:49;3.50;99.90
19906;DHT22;10115;50.906;4.438;2023-01-19T13:55:18;3.40;99.90
19906;DHT22;10115;50.906;4.438;2023-01-19T13:57:46;3.40;99.90
19906;DHT22;10115;50.906;4.438;2023-01-19T14:00:23;3.40;99.90
19906;DHT22;10115;50.906;4.438;2023-01-19T14:05:34;3.60;99.90
19906;DHT22;10115;50.906;4.438;2023-01-19T14:10:44;3.60;99.90
19906;DHT22;10115;50.906;4.438;2023-01-19T14:13:26;3.50;99.90
19906;DHT22;10115;50.906;4.438;2023-01-19T14:16:15;3.50;99.90
19906;DHT22;10115;50.906;4.438;2023-01-19T14:18:42;3.50;99.90
19906;DHT22;10115;50.906;4.438;2023-01-19T14:21:15;3.50;99.90
19906;DHT22;10115;50.906;4.438;2023-01-19T14:23:49;3.50;99.90
19906;DHT22;10115;50.906;4.438;2023-01-19T14:32:02;3.80;99.90
19906;DHT22;10115;50.906;4.438;2023-01-19T14:37:27;3.50;99.90
19906;DHT22;10115;50.906;4.438;2023-01-19T14:42:43;3.60;99.90
19906;DHT22;10115;50.906;4.438;2023-01-19T14:45:27;3.50;99.90
19906;DHT22;10115;50.906;4.438;2023-01-19T14:48:04;3.50;99.90
19906;DHT22;10115;50.906;4.438;2023-01-19T14:50:35;3.30;99.90
19906;DHT22;10115;50.906;4.438;2023-01-19T14:53:20;3.20;99.90
19906;DHT22;10115;50.906;4.438;2023-01-19T14:58:16;3.20;99.90
19906;DHT22;10115;50.906;4.438;2023-01-19T15:00:43;3.20;99.90
19906;DHT22;10115;50.906;4.438;2023-01-19T15:03:09;3.20;99.90
19906;DHT22;10115;50.906;4.438;2023-01-19T15:05:36;3.20;99.90
19906;DHT22;10115;50.906;4.438;2023-01-19T15:08:03;3.10;99.90
19906;DHT22;10115;50.906;4.438;2023-01-19T15:10:29;3.10;99.90
19906;DHT22;10115;50.906;4.438;2023-01-19T15:12:55;3.10;99.90
19906;DHT22;10115;50.906;4.438;2023-01-19T15:15:32;3.10;99.90
19906;DHT22;10115;50.906;4.438;2023-01-19T15:18:01;3.10;99.90
19906;DHT22;10115;50.906;4.438;2023-01-19T15:20:27;3.10;99.90
19906;DHT22;10115;50.906;4.438;2023-01-19T15:22:52;3.00;99.90
19906;DHT22;10115;50.906;4.438;2023-01-19T15:25:20;3.00;99.90
19906;DHT22;10115;50.906;4.438;2023-01-19T15:27:47;3.00;99.90
19906;DHT22;10115;50.906;4.438;2023-01-19T15:30:25;2.90;99.90
19906;DHT22;10115;50.906;4.438;2023-01-19T15:32:58;2.90;99.90
19906;DHT22;10115;50.906;4.438;2023-01-19T15:35:24;2.90;99.90
19906;DHT22;10115;50.906;4.438;2023-01-19T15:37:50;2.90;99.90
19906;DHT22;10115;50.906;4.438;2023-01-19T15:40:17;2.80;99.90
19906;DHT22;10115;50.906;4.438;2023-01-19T15:42:43;2.80;99.90
19906;DHT22;10115;50.906;4.438;2023-01-19T15:47:58;2.80;99.90
19906;DHT22;10115;50.906;4.438;2023-01-19T15:50:25;2.70;99.90
19906;DHT22;10115;50.906;4.438;2023-01-19T15:52:51;2.70;99.90
19906;DHT22;10115;50.906;4.438;2023-01-19T15:55:18;2.70;99.90
19906;DHT22;10115;50.906;4.438;2023-01-19T15:57:43;2.60;99.90
19906;DHT22;10115;50.906;4.438;2023-01-19T16:00:09;2.60;99.90
19906;DHT22;10115;50.906;4.438;2023-01-19T16:02:36;2.60;99.90
19906;DHT22;10115;50.906;4.438;2023-01-19T16:05:02;2.50;99.90
19906;DHT22;10115;50.906;4.438;2023-01-19T16:07:27;2.50;99.90
19906;DHT22;10115;50.906;4.438;2023-01-19T16:09:53;2.40;99.90
19906;DHT22;10115;50.906;4.438;2023-01-19T16:12:19;2.40;99.90
19906;DHT22;10115;50.906;4.438;2023-01-19T16:14:44;2.30;99.90
19906;DHT22;10115;50.906;4.438;2023-01-19T16:17:10;2.30;99.90
19906;DHT22;10115;50.906;4.438;2023-01-19T16:19:36;2.20;99.90
19906;DHT22;10115;50.906;4.438;2023-01-19T16:22:01;2.20;99.90
19906;DHT22;10115;50.906;4.438;2023-01-19T16:24:27;2.10;99.90
19906;DHT22;10115;50.906;4.438;2023-01-19T16:26:53;2.10;99.90
19906;DHT22;10115;50.906;4.438;2023-01-19T16:29:19;2.10;99.90
19906;DHT22;10115;50.906;4.438;2023-01-19T16:31:45;2.10;99.90
19906;DHT22;10115;50.906;4.438;2023-01-19T16:34:11;2.10;99.90
19906;DHT22;10115;50.906;4.438;2023-01-19T16:36:39;2.00;99.90
19906;DHT22;10115;50.906;4.438;2023-01-19T16:39:08;2.00;99.90
19906;DHT22;10115;50.906;4.438;2023-01-19T16:41:35;2.00;99.90
19906;DHT22;10115;50.906;4.438;2023-01-19T16:44:01;2.00;99.90
19906;DHT22;10115;50.906;4.438;2023-01-19T16:46:31;1.90;99.90
19906;DHT22;10115;50.906;4.438;2023-01-19T16:49:01;1.90;99.90
19906;DHT22;10115;50.906;4.438;2023-01-19T16:51:27;1.90;99.90
19906;DHT22;10115;50.906;4.438;2023-01-19T16:53:52;1.90;99.90
19906;DHT22;10115;50.906;4.438;2023-01-19T16:56:18;1.90;99.90
19906;DHT22;10115;50.906;4.438;2023-01-19T16:58:44;1.90;99.90
19906;DHT22;10115;50.906;4.438;2023-01-19T17:01:14;1.90;99.90
19906;DHT22;10115;50.906;4.438;2023-01-19T17:03:40;1.90;99.90
19906;DHT22;10115;50.906;4.438;2023-01-19T17:06:08;1.90;99.90
19906;DHT22;10115;50.906;4.438;2023-01-19T17:08:35;1.80;99.90
19906;DHT22;10115;50.906;4.438;2023-01-19T17:11:08;1.80;99.90
19906;DHT22;10115;50.906;4.438;2023-01-19T17:13:34;1.80;99.90
19906;DHT22;10115;50.906;4.438;2023-01-19T17:16:00;1.80;99.90
19906;DHT22;10115;50.906;4.438;2023-01-19T17:18:28;1.90;99.90
19906;DHT22;10115;50.906;4.438;2023-01-19T17:21:03;1.90;99.90
19906;DHT22;10115;50.906;4.438;2023-01-19T17:23:29;1.90;99.90
19906;DHT22;10115;50.906;4.438;2023-01-19T17:25:55;1.90;99.90
19906;DHT22;10115;50.906;4.438;2023-01-19T17:28:21;1.80;99.90
19906;DHT22;10115;50.906;4.438;2023-01-19T17:30:47;1.90;99.90